createdAt,value
2023-05-25T00:02:24.050Z,7.705383
2023-05-25T00:05:49.205Z,7.6651
2023-05-25T00:09:14.477Z,7.735596
2023-05-25T00:12:39.689Z,7.765808
2023-05-25T00:16:04.942Z,7.796021
2023-05-25T00:19:30.221Z,7.856445
2023-05-25T00:22:55.417Z,7.846375
2023-05-25T00:26:20.794Z,7.856445
2023-05-25T00:29:46.135Z,7.866516
2023-05-25T00:33:11.373Z,7.886658
2023-05-25T00:36:36.623Z,7.826233
2023-05-25T00:40:01.891Z,7.826233
2023-05-25T00:43:27.136Z,7.856445
2023-05-25T00:46:52.589Z,7.846375
2023-05-25T00:50:17.731Z,7.856445
2023-05-25T00:53:43.013Z,7.866516
2023-05-25T00:57:08.293Z,7.926941
2023-05-25T01:00:33.525Z,7.926941
2023-05-25T01:03:58.766Z,7.947083
2023-05-25T01:07:24.027Z,8.007507
2023-05-25T01:10:49.317Z,8.017578
2023-05-25T01:14:14.536Z,8.017578
2023-05-25T01:17:39.802Z,8.017578
2023-05-25T01:21:05.055Z,8.007507
2023-05-25T01:24:30.285Z,8.108215
2023-05-25T01:27:55.586Z,8.148499
2023-05-25T01:31:20.922Z,8.188782
2023-05-25T01:34:46.178Z,8.299561
2023-05-25T01:38:11.422Z,8.339844
2023-05-25T01:41:36.646Z,8.259277
2023-05-25T01:45:02.100Z,8.359985
2023-05-25T01:48:27.182Z,8.329773
2023-05-25T01:51:52.497Z,8.28949
2023-05-25T01:55:17.728Z,8.329773
2023-05-25T01:58:43.000Z,8.370056
2023-05-25T02:02:08.298Z,8.410339
2023-05-25T02:05:33.505Z,8.370056
2023-05-25T02:08:58.707Z,8.440552
2023-05-25T02:12:23.967Z,8.440552
2023-05-25T02:15:49.227Z,8.450623
2023-05-25T02:19:14.651Z,8.430481
2023-05-25T02:22:39.770Z,8.359985
2023-05-25T02:26:05.004Z,8.279419
2023-05-25T02:29:30.324Z,8.279419
2023-05-25T02:32:55.590Z,8.259277
2023-05-25T02:36:21.622Z,8.229065
2023-05-25T02:39:46.919Z,8.198853
2023-05-25T02:43:12.166Z,8.158569
2023-05-25T02:46:37.440Z,8.067932
2023-05-25T02:50:02.650Z,8.047791
2023-05-25T02:53:27.939Z,8.108215
2023-05-25T02:56:53.164Z,8.148499
2023-05-25T03:00:18.435Z,8.148499
2023-05-25T03:03:43.687Z,8.047791
2023-05-25T03:07:08.942Z,7.977295
2023-05-25T03:10:34.241Z,8.017578
2023-05-25T03:13:59.434Z,7.91687
2023-05-25T03:17:24.885Z,7.896729
2023-05-25T03:20:50.069Z,7.926941
2023-05-25T03:24:15.344Z,7.91687
2023-05-25T03:27:40.603Z,7.947083
2023-05-25T03:31:05.842Z,7.977295
2023-05-25T03:34:31.130Z,8.067932
2023-05-25T03:37:56.428Z,8.098145
2023-05-25T03:41:21.667Z,8.047791
2023-05-25T03:44:46.959Z,8.078003
2023-05-25T03:48:12.187Z,8.108215
2023-05-25T03:51:37.458Z,8.118286
2023-05-25T03:55:02.797Z,8.158569
2023-05-25T03:58:28.034Z,8.229065
2023-05-25T04:01:53.316Z,8.28949
2023-05-25T04:05:18.558Z,8.299561
2023-05-25T04:08:43.854Z,8.380127
2023-05-25T04:12:09.099Z,8.400269
2023-05-25T04:15:34.373Z,8.430481
2023-05-25T04:18:59.671Z,8.440552
2023-05-25T04:22:24.881Z,8.480835
2023-05-25T04:25:50.181Z,8.480835
2023-05-25T04:29:15.471Z,8.470764
2023-05-25T04:32:41.407Z,8.561401
2023-05-25T04:36:05.954Z,8.581543
2023-05-25T04:39:31.193Z,8.621826
2023-05-25T04:42:56.487Z,8.833313
2023-05-25T04:46:21.759Z,8.994446
2023-05-25T04:49:47.011Z,8.944092
2023-05-25T04:53:12.286Z,8.964233
2023-05-25T04:56:38.047Z,9.195862
2023-05-25T05:00:03.278Z,9.276428
2023-05-25T05:03:28.511Z,9.195862
2023-05-25T05:06:53.750Z,9.0448
2023-05-25T05:10:19.056Z,9.075012
2023-05-25T05:13:44.284Z,9.226074
2023-05-25T05:17:09.558Z,9.356995
2023-05-25T05:20:34.811Z,9.467773
2023-05-25T05:24:00.097Z,9.457703
2023-05-25T05:27:25.316Z,9.608765
2023-05-25T05:30:51.149Z,9.67926
2023-05-25T05:34:17.202Z,9.810181
2023-05-25T05:37:42.482Z,9.900818
2023-05-25T05:41:07.732Z,10.011597
2023-05-25T05:44:33.006Z,10.112305
2023-05-25T05:47:58.228Z,10.202942
2023-05-25T05:51:23.503Z,10.323792
2023-05-25T05:54:48.755Z,10.505066
2023-05-25T05:58:13.999Z,10.67627
2023-05-25T06:01:40.922Z,10.67627
2023-05-25T06:05:06.221Z,10.525208
2023-05-25T06:08:31.428Z,10.484924
2023-05-25T06:11:56.676Z,10.605774
2023-05-25T06:15:21.935Z,10.756836
2023-05-25T06:18:47.224Z,11.038818
2023-05-25T06:22:12.475Z,11.220093
2023-05-25T06:25:37.761Z,11.290588
2023-05-25T06:29:03.038Z,11.240234
2023-05-25T06:32:28.353Z,11.43158
2023-05-25T06:35:53.586Z,11.522217
2023-05-25T06:39:18.737Z,11.542358
2023-05-25T06:42:43.946Z,11.854553
2023-05-25T06:46:09.210Z,12.035828
2023-05-25T06:49:34.396Z,12.005615
2023-05-25T06:53:00.492Z,12.035828
2023-05-25T06:56:24.824Z,12.227173
2023-05-25T06:59:50.030Z,12.287598
2023-05-25T07:03:15.235Z,12.337952
2023-05-25T07:06:40.452Z,12.44873
2023-05-25T07:10:05.700Z,12.468872
2023-05-25T07:13:30.936Z,12.418518
2023-05-25T07:16:56.151Z,12.388306
2023-05-25T07:20:21.425Z,12.408447
2023-05-25T07:23:46.625Z,12.519226
2023-05-25T07:27:11.868Z,12.227173
2023-05-25T07:30:37.053Z,12.368164
2023-05-25T07:34:02.266Z,12.378235
2023-05-25T07:37:28.050Z,12.348022
2023-05-25T07:40:53.253Z,12.44873
2023-05-25T07:44:18.509Z,12.388306
2023-05-25T07:47:43.729Z,12.489014
2023-05-25T07:51:08.928Z,12.539368
2023-05-25T07:54:34.185Z,12.408447
2023-05-25T07:57:59.400Z,12.44873
2023-05-25T08:01:26.853Z,12.589722
2023-05-25T08:04:49.870Z,12.640076
2023-05-25T08:08:15.028Z,12.82135
2023-05-25T08:11:40.266Z,12.781067
2023-05-25T08:15:05.500Z,12.932129
2023-05-25T08:18:30.747Z,13.19397
2023-05-25T08:21:56.002Z,13.375244
2023-05-25T08:25:21.253Z,13.405457
2023-05-25T08:28:46.656Z,13.32489
2023-05-25T08:32:11.901Z,13.596802
2023-05-25T08:35:37.166Z,13.838501
2023-05-25T08:39:02.416Z,13.969421
2023-05-25T08:42:27.704Z,13.868713
2023-05-25T08:45:53.117Z,13.959351
2023-05-25T08:49:18.353Z,14.090271
2023-05-25T08:52:43.608Z,14.140625
2023-05-25T08:56:08.881Z,14.180908
2023-05-25T08:59:34.167Z,14.170837
2023-05-25T09:02:59.542Z,14.090271
2023-05-25T09:06:24.773Z,14.140625
2023-05-25T09:09:50.067Z,14.039917
2023-05-25T09:16:40.699Z,14.120483
2023-05-25T09:20:06.027Z,14.039917
2023-05-25T09:23:31.338Z,14.170837
2023-05-25T09:26:56.669Z,14.251404
2023-05-25T09:30:21.962Z,14.362183
2023-05-25T09:33:47.315Z,14.422607
2023-05-25T09:37:12.891Z,14.513245
2023-05-25T09:40:38.174Z,14.553528
2023-05-25T09:44:10.881Z,14.754944
2023-05-25T09:47:29.297Z,14.95636
2023-05-25T09:50:54.860Z,15.157776
2023-05-25T09:54:20.533Z,15.20813
2023-05-25T09:57:46.076Z,15.20813
2023-05-25T10:01:12.103Z,15.127563
2023-05-25T10:04:37.615Z,15.20813
2023-05-25T10:08:03.095Z,15.33905
2023-05-25T10:11:28.683Z,15.33905
2023-05-25T10:14:54.236Z,15.187988
2023-05-25T10:18:19.740Z,15.107422
2023-05-25T10:21:45.108Z,14.986572
2023-05-25T10:25:10.474Z,15.016785
2023-05-25T10:28:35.808Z,14.976501
2023-05-25T10:32:01.239Z,15.057068
2023-05-25T10:35:26.665Z,15.288696
2023-05-25T10:38:52.615Z,15.4599
2023-05-25T10:42:18.328Z,15.741882
2023-05-25T10:45:44.252Z,15.721741
2023-05-25T10:49:09.940Z,15.84259
2023-05-25T10:52:35.836Z,16.023865
2023-05-25T10:56:01.744Z,16.074219
2023-05-25T10:59:27.612Z,16.023865
2023-05-25T11:02:53.318Z,15.782166
2023-05-25T11:10:00.631Z,15.923157
2023-05-25T11:13:25.828Z,16.054077
2023-05-25T11:16:51.160Z,16.154785
2023-05-25T11:20:16.470Z,16.275635
2023-05-25T11:23:41.604Z,16.305847
2023-05-25T11:27:06.874Z,16.08429
2023-05-25T11:30:32.129Z,16.003723
2023-05-25T11:33:57.398Z,15.892944
2023-05-25T11:37:22.671Z,15.872803
2023-05-25T11:40:47.907Z,15.84259
2023-05-25T11:44:13.225Z,15.681458
2023-05-25T11:47:38.495Z,15.691528
2023-05-25T11:51:03.783Z,15.782166
2023-05-25T11:54:29.049Z,15.943298
2023-05-25T11:57:54.290Z,16.054077
2023-05-25T12:01:19.622Z,16.09436
2023-05-25T12:04:44.943Z,16.124573
2023-05-25T12:08:10.122Z,16.124573
2023-05-25T12:11:35.420Z,16.154785
2023-05-25T12:15:00.706Z,16.124573
2023-05-25T12:18:26.197Z,16.325989
2023-05-25T12:21:51.525Z,16.487122
2023-05-25T12:25:16.721Z,16.376343
2023-05-25T12:28:41.991Z,16.225281
2023-05-25T12:32:07.225Z,16.144714
2023-05-25T12:35:32.515Z,16.225281
2023-05-25T12:38:57.760Z,16.406555
2023-05-25T12:42:23.022Z,16.487122
2023-05-25T12:45:48.319Z,16.406555
2023-05-25T12:49:13.616Z,16.406555
2023-05-25T12:52:38.908Z,16.406555
2023-05-25T12:56:04.170Z,16.376343
2023-05-25T12:59:29.459Z,16.416626
2023-05-25T13:02:54.775Z,16.235352
2023-05-25T13:06:20.000Z,16.33606
2023-05-25T13:09:45.347Z,16.487122
2023-05-25T13:13:10.482Z,16.487122
2023-05-25T13:16:35.793Z,16.487122
2023-05-25T13:20:00.994Z,16.477051
2023-05-25T13:23:26.328Z,16.477051
2023-05-25T13:26:51.671Z,16.557617
2023-05-25T13:30:16.890Z,16.567688
2023-05-25T13:33:42.148Z,16.446838
2023-05-25T13:37:07.438Z,16.487122
2023-05-25T13:40:32.717Z,16.567688
2023-05-25T13:43:58.003Z,16.567688
2023-05-25T13:47:24.408Z,16.577759
2023-05-25T13:50:49.561Z,16.638184
2023-05-25T13:54:14.834Z,16.638184
2023-05-25T13:57:40.086Z,16.658325
2023-05-25T14:01:05.335Z,16.628113
2023-05-25T14:04:30.531Z,16.577759
2023-05-25T14:07:56.446Z,16.628113
2023-05-25T14:11:24.251Z,16.779175
2023-05-25T14:14:46.282Z,16.779175
2023-05-25T14:18:11.572Z,16.678467
2023-05-25T14:21:36.753Z,16.668396
2023-05-25T14:25:02.010Z,16.698608
2023-05-25T14:28:27.301Z,16.698608
2023-05-25T14:31:52.802Z,16.728821
2023-05-25T14:35:17.832Z,16.748962
2023-05-25T14:38:43.070Z,16.708679
2023-05-25T14:42:08.320Z,16.759033
2023-05-25T14:45:33.568Z,16.698608
2023-05-25T14:48:59.123Z,16.728821
2023-05-25T14:52:24.430Z,16.728821
2023-05-25T14:55:49.651Z,16.759033
2023-05-25T14:59:14.913Z,16.829529
2023-05-25T15:02:40.253Z,16.829529
2023-05-25T15:06:05.404Z,16.819458
2023-05-25T15:09:30.695Z,16.728821
2023-05-25T15:46:05.696Z,16.487122
2023-05-25T15:49:30.884Z,16.477051
2023-05-25T15:52:56.414Z,16.487122
2023-05-25T15:56:21.597Z,16.446838
2023-05-25T15:59:46.828Z,16.386414
2023-05-25T16:03:12.176Z,16.34613
2023-05-25T16:06:37.318Z,16.295776
2023-05-25T16:10:02.556Z,16.295776
2023-05-25T16:13:28.674Z,16.295776
2023-05-25T16:17:02.722Z,16.265564
2023-05-25T16:20:27.799Z,16.205139
2023-05-25T16:23:55.629Z,16.144714
2023-05-25T16:27:21.690Z,16.124573
2023-05-25T16:30:46.874Z,16.09436
2023-05-25T16:34:12.106Z,16.044006
2023-05-25T16:37:37.408Z,16.054077
2023-05-25T16:41:02.600Z,16.023865
2023-05-25T16:44:27.813Z,15.973511
2023-05-25T16:47:53.079Z,15.943298
2023-05-25T16:51:18.339Z,15.872803
2023-05-25T16:54:43.597Z,15.892944
2023-05-25T16:58:08.810Z,15.892944
2023-05-25T17:01:34.115Z,15.872803
2023-05-25T17:04:59.361Z,15.822449
2023-05-25T17:08:24.592Z,15.822449
2023-05-25T17:11:51.176Z,15.721741
2023-05-25T17:15:15.044Z,15.671387
2023-05-25T17:18:40.266Z,15.570679
2023-05-25T17:22:05.535Z,15.570679
2023-05-25T17:25:30.754Z,15.540466
2023-05-25T17:28:55.989Z,15.540466
2023-05-25T17:32:21.215Z,15.59082
2023-05-25T17:35:46.510Z,15.59082
2023-05-25T17:39:11.639Z,15.530396
2023-05-25T17:42:36.871Z,15.439758
2023-05-25T17:46:02.182Z,15.389404
2023-05-25T17:49:27.340Z,15.359192
2023-05-25T17:52:52.568Z,15.33905
2023-05-25T17:56:17.768Z,15.278625
2023-05-25T17:59:45.549Z,15.198059
2023-05-25T18:03:08.370Z,15.167847
2023-05-25T18:06:33.463Z,15.137634
2023-05-25T18:09:58.685Z,15.067139
2023-05-25T18:13:23.919Z,14.936218
2023-05-25T18:16:49.227Z,14.825439
2023-05-25T18:20:14.442Z,14.754944
2023-05-25T18:23:39.689Z,14.654236
2023-05-25T18:27:04.893Z,14.603882
2023-05-25T18:30:30.235Z,14.613953
2023-05-25T18:33:55.486Z,14.553528
2023-05-25T18:37:20.781Z,14.513245
2023-05-25T18:40:45.996Z,14.432678
2023-05-25T18:44:11.259Z,14.352112
2023-05-25T18:47:36.519Z,14.291687
2023-05-25T18:51:01.697Z,14.271545
2023-05-25T18:54:26.941Z,14.20105
2023-05-25T18:57:52.162Z,14.120483
2023-05-25T19:01:17.489Z,14.100342
2023-05-25T19:04:42.737Z,14.029846
2023-05-25T19:08:07.975Z,13.989563
2023-05-25T19:11:33.226Z,13.959351
2023-05-25T19:14:58.454Z,13.868713
2023-05-25T19:18:23.763Z,13.788147
2023-05-25T19:21:48.918Z,13.667297
2023-05-25T19:25:14.123Z,13.637085
2023-05-25T19:28:39.507Z,13.637085
2023-05-25T19:32:04.782Z,13.616943
2023-05-25T19:35:30.051Z,13.506165
2023-05-25T19:38:55.278Z,13.455811
2023-05-25T19:42:20.555Z,13.435669
2023-05-25T19:45:46.053Z,13.304749
2023-05-25T19:49:11.011Z,13.334961
2023-05-25T19:52:36.279Z,13.32489
2023-05-25T19:56:01.493Z,13.264465
2023-05-25T19:59:26.723Z,13.204041
2023-05-25T20:02:52.019Z,13.204041
2023-05-25T20:06:17.151Z,13.153687
2023-05-25T20:09:42.383Z,13.07312
2023-05-25T20:13:07.669Z,13.052979
2023-05-25T20:16:32.926Z,12.972412
2023-05-25T20:19:58.209Z,12.962341
2023-05-25T20:23:23.437Z,12.952271
2023-05-25T20:26:48.686Z,12.952271
2023-05-25T20:30:15.580Z,12.952271
2023-05-25T20:33:39.164Z,12.922058
2023-05-25T20:37:04.412Z,12.891846
2023-05-25T20:40:30.570Z,12.871704
2023-05-25T20:43:55.805Z,12.781067
2023-05-25T20:47:21.066Z,12.7005
2023-05-25T20:50:46.358Z,12.640076
2023-05-25T20:54:11.642Z,12.599792
2023-05-25T20:57:36.849Z,12.589722
2023-05-25T21:01:02.098Z,12.529297
2023-05-25T21:04:27.831Z,12.468872
2023-05-25T21:07:52.553Z,12.44873
2023-05-25T21:11:17.815Z,12.44873
2023-05-25T21:14:43.008Z,12.418518
2023-05-25T21:18:08.322Z,12.378235
2023-05-25T21:21:33.565Z,12.408447
2023-05-25T21:24:58.824Z,12.408447
2023-05-25T21:28:24.094Z,12.44873
2023-05-25T21:31:49.463Z,12.418518
2023-05-25T21:35:14.592Z,12.378235
2023-05-25T21:38:39.854Z,12.287598
2023-05-25T21:42:05.076Z,12.207031
2023-05-25T21:45:30.355Z,12.19696
2023-05-25T21:48:55.575Z,12.126465
2023-05-25T21:52:20.805Z,12.096252
2023-05-25T21:55:46.200Z,12.126465
2023-05-25T21:59:11.305Z,12.06604
2023-05-25T22:02:36.632Z,11.955261
2023-05-25T22:06:01.766Z,11.914978
2023-05-25T22:09:26.994Z,11.93512
2023-05-25T22:12:52.245Z,11.854553
2023-05-25T22:16:17.515Z,11.824341
2023-05-25T22:19:43.325Z,11.834412
2023-05-25T22:23:07.954Z,11.804199
2023-05-25T22:26:33.223Z,11.794128
2023-05-25T22:29:58.474Z,11.69342
2023-05-25T22:33:23.678Z,11.622925
2023-05-25T22:36:48.974Z,11.582642
2023-05-25T22:40:14.190Z,11.622925
2023-05-25T22:43:39.411Z,11.572571
2023-05-25T22:47:04.660Z,11.471863
2023-05-25T22:50:29.880Z,11.371155
2023-05-25T22:53:55.142Z,11.330872
2023-05-25T22:57:20.338Z,11.361084
2023-05-25T23:00:45.539Z,11.361084
2023-05-25T23:04:10.864Z,11.320801
2023-05-25T23:07:36.023Z,11.270447
2023-05-25T23:11:01.311Z,11.18988
2023-05-25T23:14:26.517Z,11.149597
2023-05-25T23:17:51.792Z,11.210022
2023-05-25T23:21:17.008Z,11.18988
2023-05-25T23:24:42.280Z,11.17981
2023-05-25T23:28:07.535Z,11.169739
2023-05-25T23:31:32.886Z,11.169739
2023-05-25T23:34:58.042Z,11.089172
2023-05-25T23:38:23.261Z,11.028748
2023-05-25T23:41:48.528Z,10.968323
2023-05-25T23:45:13.904Z,10.958252
2023-05-25T23:48:38.991Z,10.917969
2023-05-25T23:52:04.221Z,10.877686
2023-05-25T23:55:29.476Z,10.756836
2023-05-25T23:58:54.715Z,10.706482
